• Join FlightAware (Why Join?)
  • Login
  • US Flag 
05:15PM EDT


 

Airport Tracker/Info


-or-


 

Live Flight TrackerFlight Track Log ✈ KAP444 ✈ 27-Apr-2013 ✈ KBOS - KACK

Flight Track Log - Related Links

Times and Time Zones

All times are in EDT time to prevent confusion due to time zone crossing. See the KAP444 flight status page for this flight to view local times or setup timezone preferences in your user account.

Time Position Orientation Groundspeed Altitude Reporting Facility
EDT Latitude Longitude Course Direction KTS MPH feet Rate Location/Type
11:23AM 42.3547 -70.9993 147° Southeast  Level Estimated
11:24AM 42.3414 -70.9876 147° Southeast  Level Estimated
11:25AM 42.3280 -70.9760 147° Southeast  Level Estimated
11:26AM 42.3147 -70.9644 147° Southeast  Level Estimated
11:27AM 42.3013 -70.9528 147° Southeast  Level Estimated
11:28AM 42.2880 -70.9412 147° Southeast  Level Estimated
11:29AM 42.2746 -70.9296 147° Southeast  Level Estimated
11:30AM 42.2612 -70.9180 147° Southeast  Level Estimated
11:31AM 42.2479 -70.9064 147° Southeast  Level Estimated
11:32AM 42.2345 -70.8949 147° Southeast  Level Estimated
11:33AM 42.2212 -70.8833 147° Southeast  Level Estimated
11:34AM 42.2078 -70.8717 147° Southeast  Level Estimated
11:35AM 42.1945 -70.8602 147° Southeast  Level Estimated
11:36AM 42.1811 -70.8486 147° Southeast  Level Estimated
11:37AM 42.1677 -70.8371 147° Southeast  Level Estimated
11:38AM 42.1543 -70.8255 147° Southeast  Level Estimated
11:39AM 42.1410 -70.8140 147° Southeast  Level Estimated
11:40AM 42.1276 -70.8024 147° Southeast  Level Estimated
11:41AM 42.1142 -70.7909 147° Southeast  Level Estimated
11:42AM 42.1009 -70.7794 147° Southeast  Level Estimated
11:43AM 42.0875 -70.7679 147° Southeast  Level Estimated
11:44AM 42.0741 -70.7563 147° Southeast  Level Estimated
11:45AM 42.0607 -70.7448 147° Southeast  Level Estimated
11:46AM 42.0474 -70.7333 147° Southeast  Level Estimated
11:47AM 42.0340 -70.7218 147° Southeast  Level Estimated
11:48AM 42.0206 -70.7103 147° Southeast  Level Estimated
11:49AM 42.0072 -70.6988 147° Southeast  Level Estimated
11:50AM 41.9938 -70.6873 147° Southeast  Level Estimated
11:51AM 41.9804 -70.6758 147° Southeast  Level Estimated
11:52AM 41.9671 -70.6644 147° Southeast  Level Estimated
11:53AM 41.9537 -70.6529 147° Southeast  Level Estimated
11:54AM 41.9403 -70.6414 147° Southeast  Level Estimated
11:55AM 41.9269 -70.6300 147° Southeast  Level Estimated
11:56AM 41.9135 -70.6185 148° Southeast  Level Estimated
11:57AM 41.9001 -70.6070 148° Southeast  Level Estimated
11:58AM 41.8867 -70.5956 148° Southeast  Level Estimated
11:59AM 41.8733 -70.5842 148° Southeast  Level Estimated
12:00PM 41.8600 -70.5727 148° Southeast  Level Estimated
12:01PM 41.8466 -70.5613 148° Southeast  Level Estimated
12:02PM 41.8332 -70.5498 148° Southeast  Level Estimated
12:03PM 41.8198 -70.5384 148° Southeast  Level Estimated
12:04PM 41.8064 -70.5270 148° Southeast  Level Estimated
12:05PM 41.7930 -70.5156 148° Southeast  Level Estimated
12:06PM 41.7796 -70.5042 148° Southeast  Level Estimated
12:07PM 41.7662 -70.4928 148° Southeast  Level Estimated
12:08PM 41.7528 -70.4814 148° Southeast  Level Estimated
12:09PM 41.7394 -70.4699 148° Southeast  Level Estimated
12:10PM 41.7260 -70.4586 148° Southeast  Level Estimated
12:11PM 41.7126 -70.4472 148° Southeast  Level Estimated
12:12PM 41.6991 -70.4358 148° Southeast  Level Estimated
12:13PM 41.6857 -70.4244 148° Southeast  Level Estimated
12:14PM 41.6723 -70.4130 148° Southeast  Level Estimated
12:15PM 41.6589 -70.4017 148° Southeast  Level Estimated
12:16PM 41.6455 -70.3903 148° Southeast  Level Estimated
12:17PM 41.6321 -70.3790 148° Southeast  Level Estimated
12:18PM 41.6187 -70.3676 148° Southeast  Level Estimated
12:19PM 41.6053 -70.3562 148° Southeast  Level Estimated
12:20PM 41.5919 -70.3449 148° Southeast  Level Estimated
12:21PM 41.5784 -70.3336 148° Southeast  Level Estimated
12:22PM 41.5650 -70.3222 148° Southeast  Level Estimated
12:23PM 41.5516 -70.3109 148° Southeast  Level Estimated
12:24PM 41.5382 -70.2996 148° Southeast  Level Estimated
12:25PM 41.5247 -70.2882 148° Southeast  Level Estimated
12:26PM 41.5113 -70.2769 148° Southeast  Level Estimated
12:26PM 42.3500 -71.0000 148° Southeast 112 129 400  Level KA90
12:27PM 41.4979 -70.2656 148° Southeast  Level Estimated
12:27PM 42.3500 -70.9500 90° East 118 136 1,300  Level KA90
12:28PM 41.4845 -70.2543 148° Southeast  Level Estimated
12:28PM 42.3333 -70.9167 124° Southeast 128 147 1,900  Level KA90
12:28PM 42.3167 -70.8833 124° Southeast 131 151 2,400 540 Climbing KA90
12:29PM 41.4711 -70.2430 148° Southeast  Level Estimated
12:30PM 41.4576 -70.2317 148° Southeast  Level Estimated
12:30PM 42.2833 -70.8500 144° Southeast 135 155 3,000  Level KA90
12:31PM 41.4442 -70.2204 148° Southeast  Level Estimated
12:31PM 42.2500 -70.8167 143° Southeast 149 171 3,500  Level KA90
12:33PM 42.2598 -70.7774 71° East  Level FlightAware Approximate
12:40PM 42.2234 -70.6274 116° Southeast  Level FlightAware Approximate
12:41PM 42.2163 -70.6082 116° Southeast  Level FlightAware Approximate
12:42PM 42.2093 -70.5890 116° Southeast  Level FlightAware Approximate
12:43PM 42.2022 -70.5698 116° Southeast  Level FlightAware Approximate
12:44PM 42.1951 -70.5506 116° Southeast  Level FlightAware Approximate
12:45PM 42.1881 -70.5314 116° Southeast  Level FlightAware Approximate
12:46PM 42.1810 -70.5122 116° Southeast  Level FlightAware Approximate
12:47PM 42.1739 -70.4931 116° Southeast  Level FlightAware Approximate
12:48PM 42.1668 -70.4739 116° Southeast  Level FlightAware Approximate
12:49PM 42.1598 -70.4547 116° Southeast  Level FlightAware Approximate
12:50PM 42.1527 -70.4356 116° Southeast  Level FlightAware Approximate
12:51PM 42.1456 -70.4164 117° Southeast  Level FlightAware Approximate
12:52PM 42.1385 -70.3973 117° Southeast  Level FlightAware Approximate
12:53PM 42.1316 -70.3780 114° Southeast  Level FlightAware Approximate
12:54PM 42.1251 -70.3585 114° Southeast  Level FlightAware Approximate
12:55PM 42.1186 -70.3389 114° Southeast  Level FlightAware Approximate
12:56PM 42.1121 -70.3194 114° Southeast  Level FlightAware Approximate
12:57PM 42.1056 -70.2999 114° Southeast  Level FlightAware Approximate
12:58PM 42.0992 -70.2803 114° Southeast  Level FlightAware Approximate
12:59PM 42.0927 -70.2608 114° Southeast  Level FlightAware Approximate
01:00PM 42.0862 -70.2413 114° Southeast  Level FlightAware Approximate
01:01PM 42.0797 -70.2218 114° Southeast  Level FlightAware Approximate
01:02PM 42.0732 -70.2023 114° Southeast  Level FlightAware Approximate
01:03PM 42.0667 -70.1828 114° Southeast  Level FlightAware Approximate
01:04PM 42.0602 -70.1633 114° Southeast  Level FlightAware Approximate
01:05PM 42.0536 -70.1438 114° Southeast  Level FlightAware Approximate
01:06PM 42.0471 -70.1243 114° Southeast  Level FlightAware Approximate
01:07PM 42.0406 -70.1048 114° Southeast  Level FlightAware Approximate
01:08PM 42.0341 -70.0853 114° Southeast  Level FlightAware Approximate
01:09PM 42.0275 -70.0658 114° Southeast  Level FlightAware Approximate
01:10PM 42.0210 -70.0463 114° Southeast  Level FlightAware Approximate
01:11PM 42.0114 -70.0333 180° South  Level FlightAware Approximate
01:12PM 41.9955 -70.0333 180° South  Level FlightAware Approximate
01:13PM 41.9797 -70.0333 180° South  Level FlightAware Approximate
01:14PM 41.9638 -70.0333 180° South  Level FlightAware Approximate
01:15PM 41.9479 -70.0333 180° South  Level FlightAware Approximate
01:16PM 41.9320 -70.0333 180° South  Level FlightAware Approximate
01:17PM 41.9162 -70.0333 180° South  Level FlightAware Approximate
01:18PM 41.9003 -70.0333 180° South  Level FlightAware Approximate
01:19PM 41.8844 -70.0333 180° South  Level FlightAware Approximate
01:20PM 41.8686 -70.0333 180° South  Level FlightAware Approximate
01:21PM 41.8527 -70.0333 180° South  Level FlightAware Approximate
01:22PM 41.8368 -70.0333 180° South  Level FlightAware Approximate
01:23PM 41.8210 -70.0333 180° South  Level FlightAware Approximate
01:24PM 41.8051 -70.0333 180° South  Level FlightAware Approximate
01:25PM 41.7892 -70.0333 180° South  Level FlightAware Approximate
01:26PM 41.7733 -70.0333 180° South  Level FlightAware Approximate
01:27PM 41.7575 -70.0333 180° South  Level FlightAware Approximate
01:28PM 41.7416 -70.0333 180° South  Level FlightAware Approximate
01:29PM 41.7257 -70.0333 180° South  Level FlightAware Approximate
01:30PM 41.7099 -70.0333 180° South  Level FlightAware Approximate
01:31PM 41.6940 -70.0333 180° South  Level FlightAware Approximate
01:32PM 41.6781 -70.0333 180° South  Level FlightAware Approximate
01:33PM 41.6623 -70.0333 180° South  Level FlightAware Approximate
01:34PM 41.6464 -70.0333 180° South  Level FlightAware Approximate
01:35PM 41.6305 -70.0333 180° South  Level FlightAware Approximate
01:36PM 41.6147 -70.0333 180° South  Level FlightAware Approximate
01:37PM 41.5987 -70.0336 189° South  Level FlightAware Approximate
01:38PM 41.5830 -70.0367 189° South  Level FlightAware Approximate
01:39PM 41.5673 -70.0399 189° South  Level FlightAware Approximate
01:40PM 41.5516 -70.0430 189° South  Level FlightAware Approximate
01:41PM 41.5359 -70.0462 189° South  Level FlightAware Approximate